Time;durP1;ratioP1;P1;durP2;ratioP2;P2;SDS_P1;SDS_P2;PMS_P1;PMS_P2;Temp;Humidity;BMP_temperature;BMP_pressure;BME280_temperature;BME280_humidity;BME280_pressure;Samples;Min_cycle;Max_cycle;Signal;HPM_P1;HPM_P2
2022/05/07 00:02:27;;;;;;;33.55;18.40;;;;;;;6.59;100.00;101943.71;1809450;79;20998;-61
2022/05/07 00:04:54;;;;;;;33.85;18.23;;;;;;;6.55;100.00;101944.98;1809150;79;21018;-61
2022/05/07 00:07:21;;;;;;;40.35;19.40;;;;;;;6.52;100.00;101945.86;1809144;78;20999;-61
2022/05/07 00:09:50;;;;;;;30.30;15.33;;;;;;;6.52;100.00;101945.86;1809534;79;21076;-61
2022/05/07 00:12:17;;;;;;;25.88;14.18;;;;;;;6.53;100.00;101953.97;1809235;79;21042;-61
2022/05/07 00:14:44;;;;;;;23.15;13.05;;;;;;;6.41;100.00;101945.91;1809449;79;21053;-61
2022/05/07 00:19:58;;;;;;;26.48;13.13;;;;;;;6.47;100.00;101955.27;1809195;79;21093;-62
2022/05/07 00:22:25;;;;;;;28.77;14.85;;;;;;;6.41;100.00;101949.75;1809424;79;21037;-61
2022/05/07 00:24:52;;;;;;;27.75;14.43;;;;;;;6.62;100.00;101956.91;1801668;79;21519;-62
2022/05/07 00:27:20;;;;;;;26.10;13.83;;;;;;;6.44;100.00;101954.43;1794534;80;21011;-61
2022/05/07 00:29:47;;;;;;;25.77;12.73;;;;;;;6.31;100.00;101958.75;1794823;80;21063;-61
2022/05/07 00:32:15;;;;;;;23.55;11.70;;;;;;;6.16;100.00;101947.70;1794508;80;21030;-61
2022/05/07 00:34:42;;;;;;;20.57;10.60;;;;;;;6.07;100.00;101954.55;1794812;80;21034;-61
2022/05/07 00:37:10;;;;;;;17.10;9.05;;;;;;;6.07;100.00;101954.55;1794532;80;21086;-61
2022/05/07 00:39:39;;;;;;;17.50;9.20;;;;;;;6.16;100.00;101954.50;1794579;80;22162;-61
2022/05/07 00:42:08;;;;;;;13.13;6.60;;;;;;;6.25;100.00;101957.05;1794781;80;21034;-61
2022/05/07 00:44:35;;;;;;;15.25;7.78;;;;;;;5.79;100.00;101954.11;1794529;80;21034;-62
2022/05/07 00:47:24;;;;;;;15.63;7.00;;;;;;;5.79;100.00;101954.11;1794737;80;21515;-61
2022/05/07 00:52:44;;;;;;;11.80;6.33;;;;;;;5.78;100.00;101954.98;1794985;80;21026;-60
2022/05/07 00:55:12;;;;;;;18.00;8.73;;;;;;;5.72;100.00;101960.09;1794951;80;21057;-60
2022/05/07 00:57:40;;;;;;;16.90;9.03;;;;;;;5.69;100.00;101957.95;1794933;80;21046;-63
2022/05/07 01:00:10;;;;;;;22.70;10.95;;;;;;;5.62;100.00;101961.79;1794713;80;20987;-60
2022/05/07 01:02:38;;;;;;;21.37;11.45;;;;;;;5.65;100.00;101967.31;1794956;80;21066;-61
2022/05/07 01:05:07;;;;;;;22.20;11.00;;;;;;;5.68;100.00;101961.34;1794843;80;21023;-62
2022/05/07 01:07:35;;;;;;;18.37;10.20;;;;;;;5.62;100.00;101965.63;1794908;80;21030;-61
2022/05/07 01:10:05;;;;;;;20.68;10.53;;;;;;;5.66;100.00;101968.16;1794607;80;21051;-61
2022/05/07 01:12:36;;;;;;;20.23;11.38;;;;;;;5.61;100.00;101963.06;1794979;80;21027;-61
2022/05/07 01:15:06;;;;;;;21.05;12.20;;;;;;;5.76;100.00;101964.34;1794718;80;21038;-61
2022/05/07 01:17:34;;;;;;;28.17;13.13;;;;;;;5.66;100.00;101964.33;1794828;80;21034;-61
2022/05/07 01:20:09;;;;;;;26.23;12.98;;;;;;;5.60;100.00;101963.93;1794414;80;21543;-61
2022/05/07 01:22:34;;;;;;;22.22;12.25;;;;;;;5.59;100.00;101963.05;1794657;80;21046;-61
2022/05/07 01:25:03;;;;;;;23.07;11.48;;;;;;;5.52;100.00;101968.19;1801474;79;21042;-61
2022/05/07 01:27:32;;;;;;;20.70;10.68;;;;;;;5.54;100.00;101972.87;1809311;79;21037;-61
2022/05/07 01:29:59;;;;;;;19.92;10.53;;;;;;;5.51;100.00;101971.58;1809318;79;21553;-61
2022/05/07 01:32:26;;;;;;;20.32;10.85;;;;;;;5.58;100.00;101970.31;1809483;79;20991;-61
2022/05/07 01:34:54;;;;;;;22.25;11.18;;;;;;;5.51;100.00;101970.30;1809289;79;21550;-60
2022/05/07 01:37:22;;;;;;;21.82;11.40;;;;;;;5.36;100.00;101966.89;1809364;79;21045;-61
2022/05/07 01:39:50;;;;;;;20.97;11.50;;;;;;;5.34;100.00;101976.68;1809680;79;21054;-60
2022/05/07 01:42:17;;;;;;;20.40;11.33;;;;;;;5.35;100.00;101983.48;1809273;79;21022;-61
2022/05/07 01:44:46;;;;;;;20.43;11.08;;;;;;;5.31;100.00;101982.64;1809253;79;21546;-61
2022/05/07 01:50:00;;;;;;;18.98;11.12;;;;;;;5.33;100.00;101983.50;1809356;79;21069;-62
2022/05/07 01:52:28;;;;;;;18.85;9.88;;;;;;;5.26;100.00;101985.60;1782448;79;21046;-61
2022/05/07 01:54:57;;;;;;;18.62;9.63;;;;;;;5.27;100.00;101990.27;1809291;79;21077;-62
2022/05/07 01:57:25;;;;;;;15.60;8.30;;;;;;;5.12;100.00;101988.12;1809229;79;20999;-61
2022/05/07 01:59:52;;;;;;;14.83;8.25;;;;;;;5.15;100.00;101987.27;1808807;79;21085;-62
2022/05/07 02:02:20;;;;;;;13.32;7.55;;;;;;;5.12;100.00;101994.94;1809350;79;21041;-61
2022/05/07 02:04:47;;;;;;;12.10;6.47;;;;;;;5.11;100.00;101993.21;1809162;79;21034;-61
2022/05/07 02:07:16;;;;;;;15.05;6.80;;;;;;;5.05;100.00;101995.34;1809240;79;21054;-61
2022/05/07 02:09:43;;;;;;;17.82;6.87;;;;;;;4.92;100.00;102002.52;1809527;79;21022;-62
2022/05/07 02:12:12;;;;;;;11.63;6.28;;;;;;;4.86;100.00;101996.13;1809293;79;21046;-61
2022/05/07 02:14:40;;;;;;;13.80;5.62;;;;;;;4.86;100.00;102007.61;1809557;79;21042;-61
2022/05/07 02:17:09;;;;;;;8.13;5.12;;;;;;;4.93;100.00;102007.64;1809179;79;21042;-61
2022/05/07 02:19:36;;;;;;;11.80;5.53;;;;;;;4.91;100.00;102000.84;1809428;79;21057;-61
2022/05/07 02:22:04;;;;;;;10.18;5.12;;;;;;;4.86;100.00;102004.62;1809261;79;21077;-61
2022/05/07 02:24:31;;;;;;;11.83;5.42;;;;;;;4.86;100.00;102005.91;1807051;79;21035;-61
2022/05/07 02:26:59;;;;;;;12.70;5.05;;;;;;;4.86;100.00;102007.17;1794649;80;21015;-61
2022/05/07 02:29:27;;;;;;;15.95;8.20;;;;;;;4.98;100.00;102014.03;1794570;80;21039;-60
2022/05/07 02:32:04;;;;;;;18.73;10.05;;;;;;;4.85;100.00;102009.31;1794656;80;21051;-61
2022/05/07 02:34:37;;;;;;;18.92;10.00;;;;;;;4.85;100.00;102010.59;1794556;80;21066;-60
2022/05/07 02:37:05;;;;;;;22.10;11.25;;;;;;;4.76;100.00;102007.56;1794971;80;21011;-62
2022/05/07 02:39:33;;;;;;;22.15;10.53;;;;;;;4.81;100.00;102017.80;1794681;80;21054;-61
2022/05/07 02:44:47;;;;;;;23.30;11.25;;;;;;;4.97;100.00;102021.27;1794615;80;21046;-61
2022/05/07 02:47:14;;;;;;;20.68;11.22;;;;;;;4.91;100.00;102023.80;1794911;80;21089;-61
2022/05/07 02:49:42;;;;;;;21.40;11.70;;;;;;;5.12;100.00;102024.28;1794563;80;21539;-61
2022/05/07 02:52:11;;;;;;;23.98;10.95;;;;;;;5.39;100.00;102028.19;1794681;80;21031;-61
2022/05/07 02:54:38;;;;;;;26.70;12.43;;;;;;;4.99;100.00;102031.91;1794854;80;21018;-61
2022/05/07 02:57:06;;;;;;;23.05;12.00;;;;;;;5.08;100.00;102032.78;1794752;80;21038;-60
2022/05/07 02:59:33;;;;;;;27.82;13.53;;;;;;;5.17;100.00;102028.96;1794594;80;21062;-61
2022/05/07 03:02:02;;;;;;;20.20;11.63;;;;;;;5.22;100.00;102032.40;1794963;80;21047;-61
2022/05/07 03:04:31;;;;;;;24.47;12.33;;;;;;;5.36;100.00;102033.71;1794912;80;21491;-61
2022/05/07 03:06:58;;;;;;;22.58;11.95;;;;;;;5.54;100.00;102031.62;1765581;80;21103;-61
2022/05/07 03:09:27;;;;;;;23.12;12.65;;;;;;;5.36;100.00;102037.11;1794519;80;21043;-61
2022/05/07 03:11:55;;;;;;;28.30;12.85;;;;;;;5.69;100.00;102038.44;1795092;80;21050;-61
2022/05/07 03:14:25;;;;;;;27.07;13.70;;;;;;;5.46;100.00;102048.20;1794665;80;21034;-60
2022/05/07 03:16:52;;;;;;;28.32;14.68;;;;;;;5.40;100.00;102042.65;1795155;80;21113;-61
2022/05/07 03:19:19;;;;;;;30.65;15.80;;;;;;;5.77;100.00;102043.97;1794745;80;21031;-60
2022/05/07 03:21:47;;;;;;;35.90;16.10;;;;;;;5.65;100.00;102047.80;1794469;80;21026;-60
2022/05/07 03:24:14;;;;;;;34.20;16.05;;;;;;;5.73;100.00;102051.64;1794828;80;21043;-60
2022/05/07 03:26:41;;;;;;;32.28;16.10;;;;;;;5.82;100.00;102052.50;1789119;80;21051;-61
2022/05/07 03:29:08;;;;;;;37.00;16.97;;;;;;;5.89;100.00;102060.17;1788757;80;21033;-61
2022/05/07 03:31:37;;;;;;;33.78;15.78;;;;;;;6.12;100.00;102058.47;1758110;80;21069;-61
2022/05/07 03:34:04;;;;;;;30.35;15.55;;;;;;;5.98;100.00;102059.78;1789108;80;21017;-61
2022/05/07 03:36:33;;;;;;;34.05;15.95;;;;;;;6.14;100.00;102061.91;1788686;80;21039;-61
2022/05/07 03:39:01;;;;;;;28.55;13.93;;;;;;;6.24;100.00;102069.56;1788905;80;21516;-61
2022/05/07 03:41:30;;;;;;;27.13;13.88;;;;;;;6.46;100.00;102066.55;1788694;80;21030;-61
2022/05/07 03:43:57;;;;;;;30.15;15.43;;;;;;;6.50;100.00;102074.20;1788718;80;21047;-61
2022/05/07 03:46:25;;;;;;;27.50;14.58;;;;;;;6.59;100.00;102072.08;1788974;80;21039;-61
2022/05/07 03:48:54;;;;;;;32.63;15.18;;;;;;;6.64;100.00;102071.63;1788194;80;21008;-61
2022/05/07 03:51:22;;;;;;;29.50;14.87;;;;;;;6.73;100.00;102070.33;1788755;80;21571;-61
2022/05/07 03:53:51;;;;;;;29.65;14.50;;;;;;;6.92;100.00;102071.11;1788955;80;21436;-61
2022/05/07 03:56:19;;;;;;;26.55;13.62;;;;;;;6.92;100.00;102071.11;1788798;80;20995;-62
2022/05/07 03:58:49;;;;;;;28.45;13.53;;;;;;;7.09;100.00;102071.03;1788832;80;21452;-62
2022/05/07 04:01:19;;;;;;;24.10;13.32;;;;;;;7.21;100.00;102062.00;1786975;80;21542;-62
2022/05/07 04:03:48;;;;;;;24.95;12.30;;;;;;;7.52;100.00;102068.26;1788585;80;21523;-63
2022/05/07 04:06:15;;;;;;;24.15;12.93;;;;;;;7.52;100.00;102068.26;1788596;80;21007;-62
2022/05/07 04:08:45;;;;;;;25.32;13.13;;;;;;;7.76;100.00;102069.77;1788705;80;21086;-62
2022/05/07 04:11:12;;;;;;;26.50;12.68;;;;;;;7.87;100.00;102067.56;1788737;80;21043;-62
2022/05/07 04:13:40;;;;;;;24.35;13.20;;;;;;;7.99;100.00;102070.05;1788753;80;21041;-62
2022/05/07 04:16:07;;;;;;;22.80;11.80;;;;;;;8.08;100.00;102066.11;1788733;80;21082;-62
2022/05/07 04:18:36;;;;;;;28.25;11.73;;;;;;;8.26;100.00;102058.69;1787536;80;21035;-62
2022/05/07 04:21:05;;;;;;;22.00;11.20;;;;;;;8.45;100.00;102061.95;1788216;80;21023;-62
2022/05/07 04:23:32;;;;;;;18.02;9.30;;;;;;;8.68;100.00;102058.28;1788797;80;20991;-62
2022/05/07 04:26:00;;;;;;;17.90;8.63;;;;;;;8.85;100.00;102061.51;1788641;80;21031;-63
2022/05/07 04:28:27;;;;;;;13.70;7.78;;;;;;;8.95;100.00;102057.12;1783420;80;21046;-63
2022/05/07 04:30:56;;;;;;;18.40;8.18;;;;;;;9.15;99.76;102065.86;1788993;80;21043;-62
2022/05/07 04:33:26;;;;;;;15.15;8.10;;;;;;;9.28;99.15;102064.80;1788585;80;21027;-62
2022/05/07 04:35:54;;;;;;;16.12;7.83;;;;;;;9.48;95.17;102060.67;1788862;80;21546;-62
2022/05/07 04:38:23;;;;;;;18.95;7.45;;;;;;;9.73;92.95;102061.17;1788739;80;21027;-62
2022/05/07 04:40:54;;;;;;;14.30;6.53;;;;;;;9.96;92.85;102063.36;1788627;80;21070;-62
2022/05/07 04:43:22;;;;;;;11.68;6.03;;;;;;;10.14;89.74;102060.08;1788871;80;20991;-62
2022/05/07 04:45:49;;;;;;;9.93;5.15;;;;;;;10.38;88.40;102060.95;1788854;80;21038;-62
2022/05/07 04:48:18;;;;;;;13.00;4.50;;;;;;;10.61;86.37;102057.94;1788597;80;21035;-62
2022/05/07 04:50:47;;;;;;;10.88;3.70;;;;;;;10.96;80.94;102062.81;1788630;80;21043;-62
2022/05/07 04:53:22;;;;;;;12.88;4.00;;;;;;;11.24;74.70;102063.52;1788410;80;21039;-62
2022/05/07 04:55:51;;;;;;;15.90;4.22;;;;;;;11.60;70.40;102057.98;1788625;80;20991;-62
2022/05/07 04:58:18;;;;;;;12.58;3.75;;;;;;;11.80;69.56;102055.34;1789064;80;21086;-63
2022/05/07 05:00:46;;;;;;;10.23;3.30;;;;;;;11.89;69.29;102060.33;1788803;80;21059;-63
2022/05/07 05:03:16;;;;;;;12.65;3.50;;;;;;;12.01;66.79;102064.34;1788410;80;21090;-63
2022/05/07 05:05:46;;;;;;;11.18;3.60;;;;;;;12.21;63.59;102057.37;1788743;80;21038;-63
2022/05/07 05:08:15;;;;;;;10.68;3.62;;;;;;;12.26;65.44;102055.95;1786953;79;21106;-63
2022/05/07 05:10:43;;;;;;;9.38;3.12;;;;;;;12.38;63.99;102056.47;1787733;80;21070;-62
2022/05/07 05:13:11;;;;;;;9.05;3.33;;;;;;;12.53;63.87;102053.94;1788548;80;21070;-63
2022/05/07 05:15:41;;;;;;;8.90;3.40;;;;;;;12.65;62.38;102049.30;1788735;80;21544;-62
2022/05/07 05:18:13;;;;;;;10.18;3.02;;;;;;;12.75;60.48;102046.86;1784870;80;21586;-62
2022/05/07 05:20:41;;;;;;;12.00;2.90;;;;;;;12.83;59.21;102044.90;1788821;80;21043;-62
2022/05/07 05:23:11;;;;;;;10.03;3.05;;;;;;;13.02;59.80;102054.27;1788513;80;21087;-62
2022/05/07 05:25:45;;;;;;;12.43;3.27;;;;;;;13.11;59.85;102058.31;1788596;80;21150;-61
2022/05/07 05:28:13;;;;;;;18.70;4.95;;;;;;;13.16;59.23;102052.12;1788556;80;21043;-64
2022/05/07 05:30:42;;;;;;;11.08;3.50;;;;;;;13.27;59.57;102054.83;1788638;80;21063;-62
2022/05/07 05:33:10;;;;;;;9.25;3.00;;;;;;;13.35;59.79;102060.19;1788914;80;21011;-61
2022/05/07 05:35:41;;;;;;;7.25;2.75;;;;;;;13.50;57.83;102052.38;1788864;80;21035;-62
2022/05/07 05:38:09;;;;;;;9.43;3.05;;;;;;;13.70;55.28;102054.34;1789070;80;21011;-62
2022/05/07 05:40:38;;;;;;;9.85;3.05;;;;;;;13.79;55.38;102046.28;1789113;80;21031;-61
2022/05/07 05:43:06;;;;;;;12.47;3.33;;;;;;;13.93;55.78;102054.02;1788815;80;21047;-62
2022/05/07 05:45:33;;;;;;;9.20;3.20;;;;;;;13.79;52.66;102055.80;1783818;80;21082;-62
2022/05/07 05:48:04;;;;;;;9.85;2.65;;;;;;;13.80;52.32;102052.30;1788807;80;21039;-62
2022/05/07 05:50:32;;;;;;;6.67;2.45;;;;;;;13.99;53.33;102052.09;1789082;80;21589;-62
2022/05/07 05:53:00;;;;;;;8.98;2.60;;;;;;;13.90;51.19;102053.69;1789168;80;21054;-62
2022/05/07 05:55:28;;;;;;;6.55;2.35;;;;;;;13.83;52.50;102053.05;1788894;80;21429;-62
2022/05/07 05:57:56;;;;;;;8.30;2.65;;;;;;;13.94;49.99;102045.38;1789072;80;21553;-62
2022/05/07 06:00:23;;;;;;;8.50;2.42;;;;;;;14.24;50.57;102044.78;1788746;80;21285;-62
2022/05/07 06:02:51;;;;;;;12.20;2.72;;;;;;;14.43;51.00;102050.14;1788961;80;21031;-62
2022/05/07 06:05:26;;;;;;;5.60;2.22;;;;;;;14.36;49.70;102048.23;1789037;80;21070;-62
2022/05/07 06:07:54;;;;;;;6.75;2.27;;;;;;;14.50;47.40;102039.97;1788989;80;21082;-62
2022/05/07 06:10:23;;;;;;;8.40;2.37;;;;;;;14.68;49.55;102049.29;1788842;80;21007;-62
2022/05/07 06:12:50;;;;;;;6.37;2.45;;;;;;;14.55;48.28;102042.39;1789174;80;21066;-63
2022/05/07 06:15:19;;;;;;;8.90;2.40;;;;;;;14.73;48.60;102038.31;1788793;80;21067;-62
2022/05/07 06:17:46;;;;;;;9.18;2.22;;;;;;;14.82;48.38;102036.66;1788993;80;21023;-62
2022/05/07 06:20:14;;;;;;;4.80;2.15;;;;;;;14.79;46.04;102035.49;1788969;80;21054;-63
2022/05/07 06:22:43;;;;;;;5.53;2.20;;;;;;;14.83;45.60;102039.20;1789061;80;21090;-62
2022/05/07 06:28:01;;;;;;;5.35;1.95;;;;;;;15.00;47.75;102039.88;1788462;80;21569;-62
2022/05/07 06:30:28;;;;;;;6.97;2.33;;;;;;;15.09;46.80;102036.08;1788669;80;21098;-63
2022/05/07 06:32:57;;;;;;;4.40;1.87;;;;;;;14.94;44.55;102032.34;1788807;80;21487;-63
2022/05/07 06:35:26;;;;;;;5.25;1.77;;;;;;;14.89;43.61;102035.55;1787914;80;21070;-63
2022/05/07 06:38:01;;;;;;;7.92;1.70;;;;;;;14.92;42.19;102034.57;1781751;80;20967;-62
2022/05/07 06:40:28;;;;;;;4.90;1.70;;;;;;;15.17;45.01;102033.20;1788650;80;20995;-63
2022/05/07 06:42:56;;;;;;;6.33;2.10;;;;;;;15.14;44.23;102031.55;1789025;80;21058;-62
2022/05/07 06:45:34;;;;;;;5.70;2.00;;;;;;;15.25;45.35;102032.44;1788599;80;21051;-62
2022/05/07 06:48:08;;;;;;;5.90;2.10;;;;;;;15.22;44.22;102034.68;1788914;80;21019;-62
2022/05/07 06:50:33;;;;;;;7.22;2.30;;;;;;;15.09;43.96;102036.08;1753154;80;21003;-62
2022/05/07 06:53:00;;;;;;;5.47;2.05;;;;;;;15.30;44.75;102016.22;1810793;79;21053;-62
2022/05/07 06:55:31;;;;;;;5.37;2.15;;;;;;;15.30;44.66;102027.90;1811163;79;21029;-63
2022/05/07 06:57:58;;;;;;;7.58;2.30;;;;;;;15.56;45.18;102031.21;1810443;79;21034;-62
2022/05/07 07:00:25;;;;;;;3.77;2.00;;;;;;;15.67;46.25;102025.11;1811208;79;21081;-62
2022/05/07 07:02:52;;;;;;;7.55;2.42;;;;;;;15.63;42.91;102032.63;1810957;79;21034;-62
2022/05/07 07:05:21;;;;;;;4.50;2.20;;;;;;;15.59;43.80;102029.77;1810904;79;21030;-64
2022/05/07 07:07:48;;;;;;;7.30;2.40;;;;;;;15.73;44.90;102032.67;1811171;78;21565;-62
2022/05/07 07:10:16;;;;;;;7.15;2.10;;;;;;;15.85;44.95;102024.00;1811012;79;21085;-62
2022/05/07 07:12:46;;;;;;;6.55;2.60;;;;;;;15.95;43.69;102020.10;1810988;79;21026;-62
2022/05/07 07:15:14;;;;;;;4.78;2.80;;;;;;;15.94;43.95;102019.73;1810926;79;21038;-62
2022/05/07 07:17:41;;;;;;;8.35;2.45;;;;;;;15.79;43.40;102016.87;1810989;79;21068;-62
2022/05/07 07:20:09;;;;;;;9.63;2.40;;;;;;;16.00;44.77;102016.41;1811191;79;21479;-62
2022/05/07 07:22:38;;;;;;;9.08;2.60;;;;;;;15.87;43.54;102017.83;1811015;79;21097;-62
2022/05/07 07:25:07;;;;;;;6.62;2.40;;;;;;;16.23;45.03;102012.80;1811066;79;21557;-62
2022/05/07 07:27:35;;;;;;;5.75;2.50;;;;;;;16.34;44.20;102016.25;1810921;79;21042;-62
2022/05/07 07:30:03;;;;;;;8.68;2.80;;;;;;;16.41;44.13;102013.75;1810959;78;21038;-62
2022/05/07 07:32:31;;;;;;;6.00;2.20;;;;;;;16.48;43.44;102016.91;1811336;79;21013;-62
2022/05/07 07:34:58;;;;;;;4.85;1.87;;;;;;;16.39;41.89;102009.53;1810950;79;21089;-62
2022/05/07 07:37:27;;;;;;;4.53;2.05;;;;;;;16.43;41.34;102003.29;1811178;79;21077;-62
2022/05/07 07:39:54;;;;;;;8.93;2.10;;;;;;;16.50;41.72;101998.65;1810906;79;21053;-62
2022/05/07 07:42:23;;;;;;;4.62;2.22;;;;;;;16.58;40.92;101999.14;1811069;79;21522;-62
2022/05/07 07:47:56;;;;;;;7.20;1.80;;;;;;;16.71;40.92;102004.18;1811032;79;21100;-63
2022/05/07 07:50:06;;;;;;;5.35;1.90;;;;;;;16.68;40.99;101990.47;1810069;79;21006;-62
2022/05/07 07:52:33;;;;;;;10.70;2.20;;;;;;;16.91;42.19;101986.39;1810083;79;21104;-62
2022/05/07 07:55:00;;;;;;;5.53;1.87;;;;;;;16.93;41.23;101991.48;1810174;79;21534;-62
2022/05/07 07:57:27;;;;;;;6.20;1.87;;;;;;;16.77;40.00;101988.77;1809982;79;21014;-61
2022/05/07 07:59:54;;;;;;;3.25;1.65;;;;;;;16.68;40.30;101978.77;1809973;79;21065;-62
2022/05/07 08:02:22;;;;;;;4.95;1.80;;;;;;;16.57;39.30;101987.08;1810203;79;21081;-62
2022/05/07 08:04:54;;;;;;;4.50;1.98;;;;;;;16.92;40.27;101982.86;1809875;79;21057;-62
2022/05/07 08:12:52;;;;;;;4.60;1.82;;;;;;;17.45;38.70;101977.73;1810294;79;21117;-62
2022/05/07 08:15:23;;;;;;;3.90;1.87;;;;;;;17.61;41.14;101965.16;1809795;79;21066;-62
2022/05/07 08:17:52;;;;;;;5.05;2.00;;;;;;;17.68;41.99;101965.72;1810184;78;21022;-62
2022/05/07 08:20:19;;;;;;;5.20;1.95;;;;;;;17.84;40.76;101962.34;1809972;79;21025;-62
2022/05/07 08:22:46;;;;;;;4.50;1.50;;;;;;;17.72;38.81;101960.73;1809926;79;21058;-62
2022/05/07 08:25:13;;;;;;;5.35;2.00;;;;;;;17.77;41.98;101956.59;1810133;79;21009;-63
2022/05/07 08:27:41;;;;;;;3.98;1.92;;;;;;;17.79;40.07;101963.39;1787892;79;21561;-63
2022/05/07 08:30:10;;;;;;;3.42;1.92;;;;;;;17.97;41.32;101966.02;1830060;78;21050;-63
2022/05/07 08:32:37;;;;;;;3.70;1.70;;;;;;;18.06;40.09;101961.61;1830511;78;21062;-62
2022/05/07 08:35:05;;;;;;;3.15;1.80;;;;;;;18.03;39.98;101964.86;1830109;78;21046;-62
2022/05/07 08:37:33;;;;;;;2.87;1.52;;;;;;;18.15;41.36;101965.52;1830453;78;21041;-62
2022/05/07 08:40:01;;;;;;;3.02;1.70;;;;;;;18.13;41.05;101956.94;1829911;78;21015;-63
2022/05/07 08:42:31;;;;;;;6.05;2.12;;;;;;;18.09;38.27;101964.06;1830620;78;21053;-62
2022/05/07 08:44:58;;;;;;;5.90;1.87;;;;;;;17.86;37.77;101952.69;1830055;78;21014;-62
2022/05/07 08:47:25;;;;;;;4.20;1.80;;;;;;;17.85;39.38;101948.41;1830296;78;21506;-63
2022/05/07 08:49:53;;;;;;;4.28;1.42;;;;;;;17.92;40.49;101951.06;1830114;78;21503;-63
2022/05/07 08:52:22;;;;;;;2.47;1.35;;;;;;;18.05;39.27;101950.81;1830208;78;21545;-62
2022/05/07 08:54:50;;;;;;;2.33;1.55;;;;;;;17.80;38.22;101939.05;1830095;78;21011;-62
2022/05/07 08:57:18;;;;;;;4.60;1.45;;;;;;;18.01;40.37;101940.17;1830099;78;21054;-62
2022/05/07 08:59:54;;;;;;;6.65;1.65;;;;;;;18.02;38.30;101937.94;1831261;78;21014;-63
2022/05/07 09:02:21;;;;;;;4.83;1.60;;;;;;;18.18;38.76;101924.94;1831035;78;21062;-62
2022/05/07 09:04:58;;;;;;;9.55;1.62;;;;;;;18.16;37.40;101932.83;1831204;78;21050;-62
2022/05/07 09:07:26;;;;;;;5.33;1.40;;;;;;;18.25;37.95;101926.75;1831005;77;20995;-63
2022/05/07 09:09:55;;;;;;;4.42;1.55;;;;;;;18.36;38.96;101918.73;1831275;78;21022;-63
2022/05/07 09:12:32;;;;;;;4.42;1.50;;;;;;;18.16;35.88;101924.18;1831123;78;20987;-62
2022/05/07 09:15:05;;;;;;;4.90;1.70;;;;;;;18.18;37.05;101919.73;1830250;78;20983;-62
2022/05/07 09:17:35;;;;;;;2.30;1.25;;;;;;;18.38;36.51;101915.58;1831275;78;21030;-63
2022/05/07 09:20:21;;;;;;;6.70;1.72;;;;;;;18.17;37.09;101914.98;1804101;78;21901;-62
2022/05/07 09:22:55;;;;;;;4.35;1.42;;;;;;;18.38;38.02;101911.66;1831448;78;21034;-62
2022/05/07 09:25:27;;;;;;;4.20;1.50;;;;;;;18.79;38.01;101895.98;1831282;78;21026;-62
2022/05/07 09:27:58;;;;;;;5.62;1.62;;;;;;;18.72;36.94;101903.76;1830391;78;20991;-62
2022/05/07 09:30:28;;;;;;;7.42;1.50;;;;;;;18.35;36.04;101914.89;1829894;78;21030;-62
2022/05/07 09:32:57;;;;;;;6.15;1.60;;;;;;;18.31;38.22;101905.56;1830140;78;21550;-62
2022/05/07 09:35:48;;;;;;;3.00;1.52;;;;;;;18.38;36.72;101898.63;1830227;78;21061;-62
2022/05/07 09:38:25;;;;;;;4.45;1.65;;;;;;;18.46;37.48;101902.59;1829996;78;21027;-62
2022/05/07 09:40:53;;;;;;;5.28;1.70;;;;;;;18.51;36.39;101901.42;1830137;78;21022;-62
2022/05/07 09:43:21;;;;;;;3.83;1.80;;;;;;;18.60;35.43;101896.15;1830047;78;20994;-62
2022/05/07 09:45:49;;;;;;;4.92;1.50;;;;;;;18.80;39.15;101885.94;1830100;78;21054;-62
2022/05/07 09:48:18;;;;;;;2.95;1.40;;;;;;;19.10;38.52;101886.39;1830326;78;21066;-61
2022/05/07 09:50:46;;;;;;;2.33;1.60;;;;;;;19.07;38.58;101884.80;1830302;78;21557;-62
2022/05/07 09:58:52;;;;;;;3.17;1.47;;;;;;;18.98;36.61;101879.66;1830037;78;21053;-61
2022/05/07 10:01:27;;;;;;;5.83;1.80;;;;;;;19.08;36.00;101877.36;1829842;78;21546;-61
2022/05/07 10:04:27;;;;;;;3.40;1.60;;;;;;;19.04;35.20;101878.91;1830092;78;21026;-61
2022/05/07 10:07:09;;;;;;;3.27;1.40;;;;;;;19.06;36.56;101877.05;1829822;78;21124;-61
2022/05/07 10:10:04;;;;;;;4.28;1.70;;;;;;;19.19;37.02;101872.81;1829641;78;21074;-61
2022/05/07 10:12:33;;;;;;;5.97;1.65;;;;;;;19.31;35.29;101879.08;1830324;78;21566;-62
2022/05/07 10:15:09;;;;;;;4.67;1.50;;;;;;;19.23;34.27;101867.78;1830173;78;21026;-62
2022/05/07 10:17:36;;;;;;;2.37;1.52;;;;;;;19.57;36.43;101864.47;1829068;78;21475;-62
2022/05/07 10:20:09;;;;;;;2.60;1.60;;;;;;;19.53;35.14;101864.28;1829086;78;21038;-62
2022/05/07 10:22:37;;;;;;;4.92;2.00;;;;;;;19.49;36.18;101851.88;1829387;78;21054;-62
2022/05/07 10:25:13;;;;;;;3.00;1.50;;;;;;;19.35;37.83;101848.77;1829163;78;21055;-62
2022/05/07 10:27:44;;;;;;;4.40;1.80;;;;;;;19.86;35.93;101854.04;1829024;78;21089;-62
2022/05/07 10:30:21;;;;;;;4.05;1.55;;;;;;;19.53;35.19;101857.75;1829138;78;21519;-62
2022/05/07 10:33:03;;;;;;;4.08;1.72;;;;;;;19.14;34.06;101857.42;1829168;78;21026;-63
2022/05/07 10:35:54;;;;;;;3.17;1.62;;;;;;;19.40;36.89;101845.88;1829572;78;21025;-63
2022/05/07 10:38:36;;;;;;;5.37;1.70;;;;;;;19.57;35.39;101845.72;1829010;78;21058;-62
2022/05/07 10:41:20;;;;;;;2.98;1.40;;;;;;;19.60;33.89;101833.76;1828943;78;21081;-62
2022/05/07 10:43:56;;;;;;;4.83;1.95;;;;;;;20.23;34.61;101822.97;1828974;78;21054;-63
2022/05/07 10:46:24;;;;;;;3.02;1.65;;;;;;;19.84;34.76;101821.94;1829145;78;21046;-62
2022/05/07 10:48:55;;;;;;;5.12;1.77;;;;;;;20.10;36.02;101822.44;1829003;78;21030;-62
2022/05/07 10:51:29;;;;;;;4.08;1.98;;;;;;;20.22;35.23;101822.14;1829252;78;21049;-62
2022/05/07 10:54:03;;;;;;;3.55;1.70;;;;;;;20.11;33.40;101821.97;1829121;78;21570;-62
2022/05/07 10:56:33;;;;;;;4.58;1.80;;;;;;;20.20;32.18;101823.53;1829104;78;21545;-63
2022/05/07 10:59:01;;;;;;;5.20;1.98;;;;;;;19.86;35.09;101817.45;1829126;78;21017;-62
2022/05/07 11:01:31;;;;;;;6.78;1.92;;;;;;;19.76;34.69;101826.33;1820638;78;20958;-62
2022/05/07 11:04:07;;;;;;;4.92;1.75;;;;;;;19.94;33.17;101817.81;1824595;78;21010;-62
2022/05/07 11:06:48;;;;;;;6.12;2.10;;;;;;;20.20;36.21;101809.63;1822010;78;21008;-63
2022/05/07 11:09:20;;;;;;;7.45;2.20;;;;;;;20.30;35.86;101815.94;1820314;77;21050;-62
2022/05/07 11:11:54;;;;;;;2.80;1.60;;;;;;;20.53;36.96;101809.20;1826653;78;21065;-62
2022/05/07 11:14:30;;;;;;;2.87;1.82;;;;;;;20.50;35.63;101803.33;1824992;78;21288;-63
2022/05/07 11:16:59;;;;;;;3.55;1.67;;;;;;;20.74;37.22;101796.98;1811754;79;21002;-62
2022/05/07 11:19:32;;;;;;;4.75;2.02;;;;;;;20.76;35.43;101789.87;1811660;79;21025;-62
2022/05/07 11:22:02;;;;;;;3.65;1.95;;;;;;;20.27;34.19;101793.90;1811681;79;20994;-62
2022/05/07 11:24:31;;;;;;;4.70;2.37;;;;;;;20.45;35.16;101786.64;1811686;78;21060;-62
2022/05/07 11:27:07;;;;;;;4.20;2.00;;;;;;;20.36;33.76;101785.95;1817487;76;21530;-62
2022/05/07 11:29:35;;;;;;;5.92;1.90;;;;;;;20.53;33.62;101779.13;1879978;76;21014;-62
2022/05/07 11:32:08;;;;;;;3.02;2.20;;;;;;;20.81;35.39;101777.33;1869451;76;21043;-62
2022/05/07 11:34:38;;;;;;;3.47;1.82;;;;;;;20.71;35.84;101769.25;1865877;77;21027;-62
2022/05/07 11:37:20;;;;;;;3.33;1.70;;;;;;;20.84;31.61;101769.25;1874364;76;20950;-62
2022/05/07 11:39:56;;;;;;;4.08;1.60;;;;;;;20.83;35.61;101778.06;1879844;76;21010;-63
2022/05/07 11:42:46;;;;;;;5.50;2.15;;;;;;;20.93;32.07;101768.64;1870154;76;20975;-62
2022/05/07 11:45:26;;;;;;;4.65;1.50;;;;;;;20.75;32.91;101761.56;1865586;77;21023;-62
2022/05/07 11:48:03;;;;;;;4.12;1.50;;;;;;;20.67;33.27;101759.93;1869399;76;21002;-62
2022/05/07 11:50:33;;;;;;;6.03;1.60;;;;;;;20.84;33.22;101760.09;1879882;76;21076;-62
2022/05/07 11:53:15;;;;;;;7.67;1.72;;;;;;;20.98;31.97;101760.47;1875226;76;21003;-61
2022/05/07 11:55:45;;;;;;;3.20;1.67;;;;;;;20.93;31.86;101763.89;1865912;77;20996;-61
2022/05/07 11:58:22;;;;;;;5.30;1.67;;;;;;;21.67;30.85;101762.23;1865804;76;21515;-61
2022/05/07 12:00:55;;;;;;;6.08;1.72;;;;;;;21.75;32.83;101756.45;1865687;77;21051;-62